Time;durP1;ratioP1;P1;durP2;ratioP2;P2;SDS_P1;SDS_P2;PMS_P1;PMS_P2;Temp;Humidity;BMP_temperature;BMP_pressure;BME280_temperature;BME280_humidity;BME280_pressure;Samples;Min_cycle;Max_cycle;Signal;HPM_P1;HPM_P2
2023/04/05 00:00:11;;;;;;;3.92;2.72;;;-1.00;99.90;;;;;;4998378;28;20073;-78
2023/04/05 00:02:39;;;;;;;3.47;2.70;;;-1.10;99.90;;;;;;5000580;28;20030;-79
2023/04/05 00:05:06;;;;;;;4.60;1.98;;;-1.10;99.90;;;;;;5005553;28;20017;-80
2023/04/05 00:07:33;;;;;;;4.00;2.70;;;-1.10;99.90;;;;;;4995780;28;20034;-80
2023/04/05 00:09:59;;;;;;;2.95;2.50;;;-1.10;99.90;;;;;;4996835;28;20034;-80
2023/04/05 00:12:25;;;;;;;3.55;2.70;;;-1.10;99.90;;;;;;4989228;28;20117;-80
2023/04/05 00:14:50;;;;;;;5.00;2.88;;;-1.20;99.90;;;;;;4992185;28;20177;-81
2023/04/05 00:17:16;;;;;;;4.68;2.90;;;-1.20;99.90;;;;;;4995709;28;20125;-80
2023/04/05 00:19:43;;;;;;;3.13;2.42;;;-1.20;99.90;;;;;;4991893;28;20078;-80
2023/04/05 00:22:09;;;;;;;5.00;2.10;;;-1.20;99.90;;;;;;4998668;28;20429;-80
2023/04/05 00:24:37;;;;;;;3.92;2.35;;;-1.20;99.90;;;;;;5004581;28;20030;-80
2023/04/05 00:27:04;;;;;;;2.95;2.17;;;-1.30;99.90;;;;;;5020351;28;20500;-79
2023/04/05 00:29:29;;;;;;;3.53;2.45;;;-1.30;99.90;;;;;;4993501;28;20454;-81
2023/04/05 00:31:55;;;;;;;3.58;2.58;;;-1.30;99.90;;;;;;5002961;28;20037;-80
2023/04/05 00:34:21;;;;;;;3.88;2.58;;;-1.30;99.90;;;;;;4987176;28;20080;-80
2023/04/05 00:36:46;;;;;;;3.70;2.08;;;-1.40;99.90;;;;;;4997433;28;20413;-79
2023/04/05 00:39:12;;;;;;;3.38;2.72;;;-1.40;99.90;;;;;;4997793;28;20026;-80
2023/04/05 00:41:38;;;;;;;4.70;2.38;;;-1.40;99.90;;;;;;4999938;28;20037;-81
2023/04/05 00:44:06;;;;;;;2.95;2.38;;;-1.40;99.90;;;;;;5005941;28;20144;-80
2023/04/05 00:46:36;;;;;;;3.72;2.97;;;-1.40;99.90;;;;;;4997070;28;20049;-81
2023/04/05 00:49:03;;;;;;;6.50;2.75;;;-1.40;99.90;;;;;;4999952;28;20503;-80
2023/04/05 00:51:30;;;;;;;2.97;2.38;;;-1.50;99.90;;;;;;5016812;28;20114;-79
2023/04/05 00:53:56;;;;;;;4.20;2.75;;;-1.50;99.90;;;;;;5001406;28;20031;-80
2023/04/05 00:56:23;;;;;;;2.60;2.40;;;-1.50;99.90;;;;;;4999187;28;20022;-80
2023/04/05 00:58:50;;;;;;;3.85;2.67;;;-1.50;99.90;;;;;;4992980;28;20031;-80
2023/04/05 01:01:22;;;;;;;3.83;2.28;;;-1.50;99.90;;;;;;4999866;28;20038;-80
2023/04/05 01:03:54;;;;;;;4.35;2.47;;;-1.60;99.90;;;;;;5001509;28;20088;-79
2023/04/05 01:06:47;;;;;;;4.53;2.22;;;-1.60;99.90;;;;;;4984508;28;20081;-80
2023/04/05 01:09:25;;;;;;;2.97;2.35;;;-1.60;99.90;;;;;;4994511;28;20445;-80
2023/04/05 01:11:55;;;;;;;2.92;2.47;;;-1.60;99.90;;;;;;5000282;28;20567;-80
2023/04/05 01:14:21;;;;;;;3.20;2.20;;;-1.60;99.90;;;;;;4999649;28;20041;-81
2023/04/05 01:16:48;;;;;;;4.05;2.60;;;-1.70;99.90;;;;;;5003269;28;20042;-80
2023/04/05 01:19:15;;;;;;;2.40;2.05;;;-1.70;99.90;;;;;;5010021;28;20088;-79
2023/04/05 01:21:46;;;;;;;5.70;2.75;;;-1.70;99.90;;;;;;5018389;28;20030;-82
2023/04/05 01:24:47;;;;;;;6.40;3.08;;;-1.70;99.90;;;;;;5006307;28;20684;-83
2023/04/05 01:27:31;;;;;;;3.40;2.33;;;-1.70;99.90;;;;;;4998864;28;20084;-81
2023/04/05 01:30:19;;;;;;;3.22;2.10;;;-1.80;99.90;;;;;;4982298;28;20031;-81
2023/04/05 01:33:06;;;;;;;3.78;2.55;;;-1.80;99.90;;;;;;4996397;28;20097;-81
2023/04/05 01:35:54;;;;;;;4.45;2.45;;;-1.80;99.90;;;;;;5001743;28;20069;-81
2023/04/05 01:38:26;;;;;;;3.30;2.47;;;-1.90;99.90;;;;;;4994058;28;20022;-79
2023/04/05 01:40:52;;;;;;;3.38;2.47;;;-1.90;99.90;;;;;;5001858;28;20065;-80
2023/04/05 01:43:18;;;;;;;4.43;2.53;;;-1.80;99.90;;;;;;4999855;28;20508;-80
2023/04/05 01:45:45;;;;;;;3.15;2.30;;;-1.90;99.90;;;;;;5000085;28;20038;-79
2023/04/05 01:48:12;;;;;;;3.65;2.38;;;-1.90;99.90;;;;;;4995596;28;20041;-80
2023/04/05 01:50:37;;;;;;;5.35;2.65;;;-1.90;99.90;;;;;;4985352;28;20089;-80
2023/04/05 01:53:03;;;;;;;3.05;2.20;;;-1.90;99.90;;;;;;4999555;28;20474;-80
2023/04/05 01:55:29;;;;;;;5.97;3.17;;;-2.00;99.90;;;;;;4997007;28;20061;-81
2023/04/05 01:57:55;;;;;;;3.60;2.47;;;-1.90;99.90;;;;;;4998024;28;20038;-79
2023/04/05 02:00:21;;;;;;;5.13;2.45;;;-1.90;99.90;;;;;;4996900;28;20397;-80
2023/04/05 02:02:47;;;;;;;5.68;2.67;;;-1.90;99.90;;;;;;4989668;28;20139;-80
2023/04/05 02:05:12;;;;;;;3.85;2.35;;;-1.90;99.90;;;;;;5005855;28;20706;-79
2023/04/05 02:07:38;;;;;;;4.03;2.65;;;-1.90;99.90;;;;;;5007838;28;20041;-79
2023/04/05 02:10:04;;;;;;;6.40;3.47;;;-1.90;99.90;;;;;;5008106;28;20037;-80
2023/04/05 02:12:30;;;;;;;5.93;2.85;;;-1.90;99.90;;;;;;4999580;28;20110;-79
2023/04/05 02:14:57;;;;;;;3.85;2.97;;;-1.90;99.90;;;;;;5003416;28;20057;-80
2023/04/05 02:17:22;;;;;;;5.20;3.30;;;-2.00;99.90;;;;;;4991948;28;20038;-80
2023/04/05 02:19:48;;;;;;;5.05;2.85;;;-2.00;99.90;;;;;;4999644;28;20045;-79
2023/04/05 02:22:14;;;;;;;4.55;3.28;;;-2.00;99.90;;;;;;5003236;28;20101;-79
2023/04/05 02:24:40;;;;;;;5.45;2.88;;;-2.00;99.90;;;;;;5006704;28;20053;-80
2023/04/05 02:27:06;;;;;;;3.88;2.92;;;-2.00;99.90;;;;;;4999841;28;20069;-80
2023/04/05 02:29:33;;;;;;;5.95;3.20;;;-2.10;99.90;;;;;;5004662;28;20026;-79
2023/04/05 02:31:59;;;;;;;4.35;3.03;;;-2.00;99.90;;;;;;5001441;28;20207;-80
2023/04/05 02:34:26;;;;;;;3.83;2.70;;;-2.10;99.90;;;;;;4997745;28;20427;-80
2023/04/05 02:36:52;;;;;;;7.57;3.30;;;-2.10;99.90;;;;;;4999298;28;20086;-80
2023/04/05 02:39:18;;;;;;;5.30;2.97;;;-2.10;99.90;;;;;;4999898;28;20014;-79
2023/04/05 02:41:44;;;;;;;4.93;2.90;;;-2.10;99.90;;;;;;5006649;28;20507;-80
2023/04/05 02:44:10;;;;;;;3.55;2.47;;;-2.10;99.90;;;;;;5005592;28;20398;-80
2023/04/05 02:46:35;;;;;;;5.15;3.17;;;-2.10;99.90;;;;;;5001659;28;20045;-80
2023/04/05 02:49:01;;;;;;;5.63;2.90;;;-2.10;99.90;;;;;;5005207;28;20108;-80
2023/04/05 02:51:26;;;;;;;3.83;2.70;;;-2.10;99.90;;;;;;5020275;28;20025;-80
2023/04/05 02:53:52;;;;;;;6.55;3.30;;;-2.10;99.90;;;;;;5005959;28;20022;-78
2023/04/05 02:56:18;;;;;;;5.30;3.20;;;-2.20;99.90;;;;;;5006575;28;20025;-80
2023/04/05 02:58:44;;;;;;;6.65;3.45;;;-2.20;99.90;;;;;;5009649;28;20065;-79
2023/04/05 03:01:10;;;;;;;7.03;3.92;;;-2.20;99.90;;;;;;5024695;28;20022;-80
2023/04/05 03:03:36;;;;;;;5.65;3.40;;;-2.20;99.90;;;;;;5002996;28;20408;-78
2023/04/05 03:06:10;;;;;;;8.25;3.75;;;-2.30;99.90;;;;;;5006714;28;20025;-80
2023/04/05 03:08:37;;;;;;;5.32;2.85;;;-2.20;99.90;;;;;;4996631;28;20026;-79
2023/04/05 03:11:06;;;;;;;6.15;3.17;;;-2.30;99.90;;;;;;5001654;28;20049;-80
2023/04/05 03:13:32;;;;;;;3.67;2.75;;;-2.20;99.90;;;;;;5000998;28;20026;-80
2023/04/05 03:15:57;;;;;;;4.82;2.83;;;-2.20;99.90;;;;;;5007069;28;20269;-80
2023/04/05 03:18:28;;;;;;;5.75;3.13;;;-2.30;99.90;;;;;;4998840;28;20029;-79
2023/04/05 03:20:57;;;;;;;5.07;2.78;;;-2.30;99.90;;;;;;4997100;28;20033;-79
2023/04/05 03:23:27;;;;;;;4.70;3.15;;;-2.30;99.90;;;;;;5003904;28;20660;-80
2023/04/05 03:25:55;;;;;;;6.65;3.58;;;-2.30;99.90;;;;;;5001214;28;20029;-80
2023/04/05 03:28:22;;;;;;;5.47;2.92;;;-2.30;99.90;;;;;;4997316;28;20025;-79
2023/04/05 03:30:48;;;;;;;2.90;2.58;;;-2.30;99.90;;;;;;5001207;28;20034;-79
2023/04/05 03:33:14;;;;;;;3.35;2.35;;;-2.40;99.90;;;;;;4994679;28;20239;-79
2023/04/05 03:35:39;;;;;;;3.03;2.30;;;-2.40;99.90;;;;;;4998046;28;20433;-79
2023/04/05 03:38:06;;;;;;;5.45;2.60;;;-2.40;99.90;;;;;;5001904;28;20054;-80
2023/04/05 03:40:32;;;;;;;3.55;2.38;;;-2.40;99.90;;;;;;5007292;28;20034;-80
2023/04/05 03:42:57;;;;;;;6.60;3.10;;;-2.40;99.90;;;;;;5003437;28;20023;-80
2023/04/05 03:45:24;;;;;;;7.15;2.88;;;-2.40;99.90;;;;;;4997414;28;20099;-79
2023/04/05 03:47:49;;;;;;;3.80;2.25;;;-2.40;99.90;;;;;;5022449;28;20787;-80
2023/04/05 03:50:15;;;;;;;4.35;2.85;;;-2.40;99.90;;;;;;5001222;28;20022;-79
2023/04/05 03:52:40;;;;;;;4.68;2.38;;;-2.40;99.90;;;;;;5006028;28;20022;-79
2023/04/05 03:55:07;;;;;;;3.88;2.88;;;-2.40;99.90;;;;;;5004251;28;20401;-80
2023/04/05 03:57:32;;;;;;;7.72;2.80;;;-2.30;99.90;;;;;;5007847;28;20373;-79
2023/04/05 03:59:58;;;;;;;4.57;2.53;;;-2.20;99.90;;;;;;5000701;28;20034;-80
2023/04/05 04:02:24;;;;;;;4.03;2.55;;;-2.20;99.90;;;;;;5000533;28;20030;-79
2023/04/05 04:04:50;;;;;;;2.55;2.20;;;-2.20;99.90;;;;;;5004255;28;20381;-79
2023/04/05 04:07:15;;;;;;;4.32;2.90;;;-2.20;99.90;;;;;;5000525;28;20863;-80
2023/04/05 04:09:41;;;;;;;4.97;2.83;;;-2.20;99.90;;;;;;5004692;28;20084;-79
2023/04/05 04:12:07;;;;;;;3.08;2.30;;;-2.20;99.90;;;;;;4998797;28;20071;-79
2023/04/05 04:14:35;;;;;;;4.10;2.40;;;-2.20;99.90;;;;;;4996847;28;20057;-79
2023/04/05 04:17:02;;;;;;;4.93;3.25;;;-2.10;99.90;;;;;;4997827;28;20085;-78
2023/04/05 04:19:27;;;;;;;6.18;3.30;;;-2.00;99.90;;;;;;4998330;28;20836;-79
2023/04/05 04:21:54;;;;;;;3.20;2.70;;;-2.00;99.90;;;;;;5002099;28;20057;-79
2023/04/05 04:24:20;;;;;;;7.22;2.85;;;-1.90;99.90;;;;;;5000400;28;20029;-79
2023/04/05 04:26:46;;;;;;;5.63;3.67;;;-1.90;99.90;;;;;;4993785;28;20023;-80
2023/04/05 04:29:12;;;;;;;4.80;2.97;;;-1.90;99.90;;;;;;5004854;28;20110;-80
2023/04/05 04:31:38;;;;;;;4.55;3.03;;;-1.80;99.90;;;;;;4996591;28;20036;-79
2023/04/05 04:34:04;;;;;;;5.03;3.40;;;-1.80;99.90;;;;;;5002699;28;20049;-79
2023/04/05 04:36:33;;;;;;;5.90;3.13;;;-1.80;99.90;;;;;;4998223;28;20057;-80
2023/04/05 04:39:01;;;;;;;3.80;2.85;;;-1.80;99.90;;;;;;5000769;28;20030;-80
2023/04/05 04:41:27;;;;;;;3.83;2.95;;;-1.80;99.90;;;;;;5013408;28;20030;-80
2023/04/05 04:43:53;;;;;;;4.00;2.85;;;-1.70;99.90;;;;;;4993929;28;20034;-80
2023/04/05 04:46:19;;;;;;;4.50;2.42;;;-1.70;99.90;;;;;;5003263;28;20037;-80
2023/04/05 04:48:46;;;;;;;5.13;2.75;;;-1.60;99.90;;;;;;4996488;28;20026;-80
2023/04/05 04:51:11;;;;;;;5.72;3.25;;;-1.60;99.90;;;;;;5003001;28;20658;-79
2023/04/05 04:53:37;;;;;;;6.03;3.17;;;-1.60;99.90;;;;;;4993637;28;20148;-80
2023/04/05 04:56:09;;;;;;;6.22;3.08;;;-1.60;99.90;;;;;;5003445;28;20477;-80
2023/04/05 04:58:34;;;;;;;7.10;3.30;;;-1.50;99.90;;;;;;5004205;28;20026;-79
2023/04/05 05:01:07;;;;;;;3.50;2.92;;;-1.50;99.90;;;;;;5008608;28;20043;-79
2023/04/05 05:03:34;;;;;;;5.93;3.10;;;-1.40;99.90;;;;;;5017198;28;20026;-80
2023/04/05 05:06:01;;;;;;;5.82;3.13;;;-1.40;99.90;;;;;;5001515;28;20728;-79
2023/04/05 05:08:27;;;;;;;7.90;3.55;;;-1.40;99.90;;;;;;4990420;28;20849;-81
2023/04/05 05:10:52;;;;;;;17.25;5.50;;;-1.40;99.90;;;;;;4990512;28;20030;-79
2023/04/05 05:13:18;;;;;;;22.77;7.15;;;-1.40;99.90;;;;;;5009958;28;20041;-80
2023/04/05 05:15:43;;;;;;;15.82;5.63;;;-1.30;99.90;;;;;;4995797;28;20110;-80
2023/04/05 05:18:09;;;;;;;18.65;6.65;;;-1.30;99.90;;;;;;4995949;28;20057;-80
2023/04/05 05:20:36;;;;;;;18.05;5.80;;;-1.20;99.90;;;;;;5001996;28;20117;-80
2023/04/05 05:23:04;;;;;;;11.90;4.65;;;-1.20;99.90;;;;;;4999685;28;20464;-80
2023/04/05 05:25:29;;;;;;;10.63;5.30;;;-1.10;99.90;;;;;;5006335;28;20026;-79
2023/04/05 05:27:55;;;;;;;26.63;5.70;;;-1.10;99.90;;;;;;4996838;28;20081;-80
2023/04/05 05:30:21;;;;;;;24.58;5.97;;;-1.10;99.90;;;;;;4997902;28;20489;-80
2023/04/05 05:32:47;;;;;;;30.98;7.53;;;-1.00;99.90;;;;;;5002495;28;20651;-80
2023/04/05 05:35:13;;;;;;;26.08;6.00;;;-1.00;99.90;;;;;;5008534;28;20117;-80
2023/04/05 05:37:38;;;;;;;24.75;6.10;;;-0.90;99.90;;;;;;4998964;28;20448;-80
2023/04/05 05:40:04;;;;;;;25.25;6.15;;;-0.90;99.90;;;;;;5007975;28;20547;-81
2023/04/05 05:42:33;;;;;;;11.55;4.82;;;-0.90;99.90;;;;;;5005937;28;20121;-80
2023/04/05 05:45:05;;;;;;;6.68;4.30;;;-0.80;99.90;;;;;;5002192;28;20093;-80
2023/04/05 05:47:31;;;;;;;6.03;4.05;;;-0.80;99.90;;;;;;5004734;28;20041;-80
2023/04/05 05:49:57;;;;;;;5.47;4.13;;;-0.70;99.90;;;;;;5003730;28;20091;-80
2023/04/05 05:52:23;;;;;;;7.57;4.15;;;-0.70;99.90;;;;;;5007987;28;20508;-80
2023/04/05 05:54:48;;;;;;;11.20;4.65;;;-0.70;99.90;;;;;;5006351;28;20392;-80
2023/04/05 05:57:14;;;;;;;13.38;4.70;;;-0.60;99.90;;;;;;5012384;28;20026;-80
2023/04/05 05:59:40;;;;;;;6.35;4.30;;;-0.60;99.90;;;;;;5023035;28;20033;-80
2023/04/05 06:02:06;;;;;;;5.30;4.10;;;-0.50;99.90;;;;;;5001738;28;20038;-80
2023/04/05 06:04:33;;;;;;;8.13;4.93;;;-0.50;99.90;;;;;;5009472;28;20034;-79
2023/04/05 06:06:59;;;;;;;12.07;4.97;;;-0.40;99.90;;;;;;5004232;28;20053;-79
2023/04/05 06:09:25;;;;;;;8.15;4.68;;;-0.30;99.90;;;;;;5025270;28;20130;-80
2023/04/05 06:11:55;;;;;;;6.07;4.20;;;-0.20;99.90;;;;;;5006432;28;20040;-80
2023/04/05 06:14:21;;;;;;;6.75;4.38;;;-0.20;99.90;;;;;;5006973;28;20079;-80
2023/04/05 06:16:46;;;;;;;8.52;4.82;;;-0.10;99.90;;;;;;5002754;28;20505;-80
2023/04/05 06:19:12;;;;;;;6.95;4.68;;;0.00;99.90;;;;;;5001727;28;20473;-81
2023/04/05 06:21:38;;;;;;;7.03;4.35;;;0.00;99.90;;;;;;5003523;28;20334;-80
2023/04/05 06:24:04;;;;;;;7.72;4.53;;;0.10;99.90;;;;;;4995385;28;20141;-82
2023/04/05 06:26:30;;;;;;;7.07;3.97;;;0.20;99.90;;;;;;5013242;28;20108;-81
2023/04/05 06:28:56;;;;;;;5.70;4.32;;;0.20;99.90;;;;;;4996852;28;20752;-80
2023/04/05 06:31:34;;;;;;;5.88;4.50;;;0.40;99.90;;;;;;5019908;28;20030;-79
2023/04/05 06:34:00;;;;;;;6.22;3.58;;;0.50;99.90;;;;;;5009043;28;20076;-81
2023/04/05 06:36:26;;;;;;;7.57;3.33;;;0.60;99.90;;;;;;4988185;28;20041;-81
2023/04/05 06:38:52;;;;;;;9.43;3.92;;;0.80;99.90;;;;;;5001110;28;20034;-80
2023/04/05 06:41:18;;;;;;;8.50;3.40;;;0.90;99.90;;;;;;5004539;28;20021;-80
2023/04/05 06:43:43;;;;;;;8.70;4.07;;;1.00;99.90;;;;;;4998798;28;20085;-81
2023/04/05 06:46:11;;;;;;;7.18;3.55;;;1.20;99.90;;;;;;4994727;28;20034;-81
2023/04/05 06:48:37;;;;;;;5.88;3.72;;;1.20;99.90;;;;;;5001496;28;20022;-81
2023/04/05 06:51:03;;;;;;;6.72;3.78;;;1.30;99.90;;;;;;5008875;28;20018;-81
2023/04/05 06:53:29;;;;;;;6.38;4.18;;;1.40;99.90;;;;;;5003100;28;20038;-81
2023/04/05 06:55:57;;;;;;;6.07;3.72;;;1.40;99.90;;;;;;4997552;28;20039;-81
2023/04/05 06:58:23;;;;;;;5.10;3.42;;;1.50;99.90;;;;;;5006073;28;20054;-80
2023/04/05 07:00:49;;;;;;;6.95;4.00;;;1.60;99.90;;;;;;4992292;28;20042;-81
2023/04/05 07:03:15;;;;;;;4.03;3.58;;;1.60;99.90;;;;;;5007851;28;20057;-81
2023/04/05 07:05:48;;;;;;;8.90;3.95;;;1.70;99.90;;;;;;5000491;28;20070;-80
2023/04/05 07:08:14;;;;;;;5.43;3.80;;;1.90;99.90;;;;;;4997290;28;20075;-80
2023/04/05 07:10:40;;;;;;;6.22;3.67;;;2.00;99.90;;;;;;4992428;28;20038;-80
2023/04/05 07:13:05;;;;;;;7.22;3.88;;;2.10;99.90;;;;;;5008270;28;20029;-79
2023/04/05 07:15:31;;;;;;;6.05;4.28;;;2.20;99.90;;;;;;5015874;28;20034;-80
2023/04/05 07:17:57;;;;;;;6.32;3.90;;;2.40;99.90;;;;;;5010679;28;20027;-81
2023/04/05 07:20:22;;;;;;;7.50;4.22;;;2.60;99.90;;;;;;5017225;28;20457;-80
2023/04/05 07:22:48;;;;;;;6.68;3.90;;;2.90;99.90;;;;;;5004112;28;20042;-82
2023/04/05 07:25:13;;;;;;;7.40;3.97;;;3.20;99.90;;;;;;5014124;28;20505;-80
2023/04/05 07:27:39;;;;;;;8.02;4.05;;;3.50;99.90;;;;;;4998220;28;20459;-80
2023/04/05 07:30:05;;;;;;;5.72;3.67;;;3.80;99.90;;;;;;4992035;28;20034;-80
2023/04/05 07:32:30;;;;;;;9.20;4.63;;;4.10;99.90;;;;;;5000307;28;20052;-81
2023/04/05 07:34:56;;;;;;;3.42;2.65;;;4.40;99.90;;;;;;5007659;28;20778;-80
2023/04/05 07:37:22;;;;;;;7.97;4.63;;;4.60;99.90;;;;;;5004664;28;20018;-81
2023/04/05 07:39:47;;;;;;;5.15;3.83;;;4.80;99.90;;;;;;5014193;28;20018;-81
2023/04/05 07:42:13;;;;;;;4.85;3.75;;;4.90;99.90;;;;;;5005794;28;20026;-81
2023/04/05 07:44:38;;;;;;;6.80;3.60;;;5.00;99.90;;;;;;5002519;28;20469;-81
2023/04/05 07:47:04;;;;;;;6.35;3.78;;;5.20;99.90;;;;;;5005930;28;20034;-81
2023/04/05 07:49:30;;;;;;;6.90;3.25;;;5.30;99.90;;;;;;5004111;28;20065;-81
2023/04/05 07:51:56;;;;;;;5.47;3.80;;;5.40;99.90;;;;;;5005807;28;20026;-82
2023/04/05 07:54:22;;;;;;;5.97;3.22;;;5.50;99.90;;;;;;5005338;28;20045;-81
2023/04/05 07:56:49;;;;;;;3.85;2.90;;;5.70;99.90;;;;;;5007473;28;20054;-81
2023/04/05 07:59:15;;;;;;;5.55;3.67;;;5.90;99.90;;;;;;5005801;28;20017;-80
2023/04/05 08:01:40;;;;;;;7.00;3.28;;;6.00;99.90;;;;;;4997078;28;20061;-81
2023/04/05 08:04:06;;;;;;;6.13;3.40;;;6.20;99.90;;;;;;5006721;28;20033;-81
2023/04/05 08:06:31;;;;;;;5.53;3.53;;;6.40;99.90;;;;;;4999925;28;20615;-81
2023/04/05 08:08:57;;;;;;;4.05;3.13;;;6.50;99.90;;;;;;4997904;28;20121;-82
2023/04/05 08:11:23;;;;;;;4.75;3.03;;;6.70;99.30;;;;;;5000328;28;20030;-82
2023/04/05 08:13:48;;;;;;;4.03;3.10;;;6.80;97.80;;;;;;5007454;28;20030;-79
2023/04/05 08:16:14;;;;;;;4.22;2.72;;;7.00;98.50;;;;;;5006861;28;20370;-81
2023/04/05 08:18:39;;;;;;;4.15;3.17;;;7.20;99.10;;;;;;5001031;28;20037;-81
2023/04/05 08:21:05;;;;;;;5.03;3.40;;;7.30;98.50;;;;;;5002881;28;20061;-81
2023/04/05 08:23:31;;;;;;;3.78;3.22;;;7.50;97.00;;;;;;5005091;28;20137;-82
2023/04/05 08:25:56;;;;;;;9.20;3.45;;;7.60;97.20;;;;;;5001394;28;20014;-81
2023/04/05 08:28:22;;;;;;;4.90;3.20;;;7.70;97.10;;;;;;5002795;28;20662;-81
2023/04/05 08:30:54;;;;;;;3.80;3.28;;;7.80;96.40;;;;;;4999796;28;20050;-81
2023/04/05 08:33:19;;;;;;;5.90;2.92;;;8.00;97.00;;;;;;4996713;28;20037;-81
2023/04/05 08:35:45;;;;;;;6.30;3.30;;;8.00;95.90;;;;;;4995808;28;20026;-81
2023/04/05 08:38:11;;;;;;;7.88;3.58;;;8.10;95.80;;;;;;5003835;28;20315;-81
2023/04/05 08:40:43;;;;;;;5.30;3.10;;;8.10;94.00;;;;;;5013226;28;20118;-80
2023/04/05 08:43:23;;;;;;;6.10;3.10;;;8.20;95.80;;;;;;4995649;28;20042;-82
2023/04/05 08:45:50;;;;;;;4.88;3.13;;;8.40;94.60;;;;;;5006450;28;20061;-81
2023/04/05 08:48:19;;;;;;;5.10;3.58;;;8.50;95.00;;;;;;5018486;28;20046;-80
2023/04/05 08:50:51;;;;;;;5.22;3.47;;;8.60;96.50;;;;;;5005308;28;20481;-81
2023/04/05 08:53:20;;;;;;;5.40;3.40;;;8.70;94.90;;;;;;5020189;28;20446;-81
2023/04/05 08:55:50;;;;;;;7.07;3.33;;;8.80;95.20;;;;;;5002709;28;20034;-82
2023/04/05 08:58:17;;;;;;;4.20;2.83;;;8.80;96.00;;;;;;5006174;28;20023;-81
2023/04/05 09:00:43;;;;;;;5.10;3.10;;;8.90;95.90;;;;;;4998615;28;20041;-82
2023/04/05 09:03:18;;;;;;;4.55;3.35;;;9.10;96.70;;;;;;5022664;28;20025;-81
2023/04/05 09:05:47;;;;;;;7.32;3.80;;;9.10;92.80;;;;;;5001795;28;20031;-82
2023/04/05 09:08:13;;;;;;;5.03;3.33;;;9.00;93.70;;;;;;5025347;28;20049;-81
2023/04/05 09:10:39;;;;;;;4.60;3.50;;;8.90;93.80;;;;;;5001639;28;20063;-81
2023/04/05 09:13:07;;;;;;;3.88;3.28;;;9.00;96.40;;;;;;5012863;28;20021;-81
2023/04/05 09:15:37;;;;;;;6.38;3.42;;;9.30;97.80;;;;;;5004100;28;20050;-82
2023/04/05 09:18:03;;;;;;;6.00;3.50;;;9.50;95.60;;;;;;5005111;28;20129;-82
2023/04/05 09:20:29;;;;;;;4.35;3.30;;;9.60;95.10;;;;;;5008332;28;20513;-81
2023/04/05 09:22:55;;;;;;;5.97;3.67;;;9.50;92.70;;;;;;5006545;28;20026;-82
2023/04/05 09:25:30;;;;;;;5.45;3.60;;;9.30;93.50;;;;;;4992394;28;20018;-80
2023/04/05 09:27:56;;;;;;;3.47;3.03;;;9.30;95.20;;;;;;5002030;28;20038;-81
2023/04/05 09:30:23;;;;;;;6.35;3.80;;;9.40;94.80;;;;;;5001321;28;20061;-81
2023/04/05 09:32:54;;;;;;;7.30;3.28;;;9.50;95.00;;;;;;5005703;28;20026;-82
2023/04/05 09:35:29;;;;;;;8.40;3.60;;;9.70;95.40;;;;;;4992322;28;20029;-81
2023/04/05 09:37:59;;;;;;;6.53;3.95;;;9.90;95.70;;;;;;5003941;28;20370;-81
2023/04/05 09:40:46;;;;;;;6.57;3.42;;;9.90;96.20;;;;;;4998185;28;20389;-82
2023/04/05 09:43:13;;;;;;;4.25;3.38;;;10.10;94.20;;;;;;5000432;28;20042;-81
2023/04/05 09:45:40;;;;;;;6.72;3.42;;;10.10;95.50;;;;;;5002942;28;20350;-81
2023/04/05 09:48:07;;;;;;;4.00;2.65;;;10.30;94.60;;;;;;5002137;28;20370;-81
2023/04/05 09:50:33;;;;;;;5.40;3.45;;;10.10;93.30;;;;;;5005855;28;20026;-82
2023/04/05 09:53:14;;;;;;;5.60;3.78;;;9.80;92.50;;;;;;5006365;28;20026;-81
2023/04/05 09:55:40;;;;;;;6.22;3.25;;;9.50;93.20;;;;;;5007329;28;20026;-80
2023/04/05 09:58:20;;;;;;;3.72;2.67;;;9.20;93.80;;;;;;5022464;28;20022;-82
2023/04/05 10:00:53;;;;;;;10.95;3.88;;;9.00;93.90;;;;;;4993255;28;20249;-82
2023/04/05 10:03:19;;;;;;;3.58;3.25;;;9.30;94.20;;;;;;5023648;28;20028;-80
2023/04/05 10:05:46;;;;;;;6.15;3.72;;;9.50;94.10;;;;;;5007215;28;20121;-81
2023/04/05 10:08:14;;;;;;;4.85;3.10;;;9.60;94.90;;;;;;5012479;28;20056;-82
2023/04/05 10:10:46;;;;;;;4.28;3.58;;;9.60;96.30;;;;;;5002236;28;20444;-82
2023/04/05 10:13:14;;;;;;;4.50;3.08;;;9.70;96.80;;;;;;5001201;28;20053;-81
2023/04/05 10:15:44;;;;;;;4.68;4.07;;;9.90;98.70;;;;;;4998182;28;20056;-81
2023/04/05 10:18:17;;;;;;;3.15;2.80;;;9.90;93.40;;;;;;4997917;28;20041;-81
2023/04/05 10:20:48;;;;;;;7.82;3.17;;;9.60;93.30;;;;;;5003851;28;20097;-82
2023/04/05 10:23:23;;;;;;;3.20;2.30;;;9.30;94.70;;;;;;5005093;28;20025;-81
2023/04/05 10:25:54;;;;;;;4.68;2.33;;;9.00;93.40;;;;;;5006931;28;20026;-81
2023/04/05 10:28:35;;;;;;;3.78;3.17;;;8.70;95.00;;;;;;4996822;28;20045;-81
2023/04/05 10:31:20;;;;;;;3.85;2.45;;;8.50;94.30;;;;;;5004220;28;20042;-82
2023/04/05 10:33:46;;;;;;;4.68;2.58;;;8.50;95.60;;;;;;5009401;28;20022;-81
2023/04/05 10:36:36;;;;;;;5.47;3.30;;;8.50;95.80;;;;;;5003146;28;20041;-80
2023/04/05 10:39:07;;;;;;;3.97;2.65;;;8.40;95.60;;;;;;5008405;28;20021;-81
2023/04/05 10:41:42;;;;;;;4.30;2.92;;;8.60;98.00;;;;;;4990462;28;20032;-82
2023/04/05 10:44:10;;;;;;;6.47;3.13;;;9.00;96.10;;;;;;4996518;28;20025;-81
2023/04/05 10:46:38;;;;;;;6.30;3.25;;;9.40;97.80;;;;;;5005377;28;20044;-81
2023/04/05 10:49:26;;;;;;;3.13;2.78;;;9.70;97.50;;;;;;4997276;28;20024;-82
2023/04/05 10:51:53;;;;;;;5.18;3.25;;;10.10;97.80;;;;;;5001970;28;20018;-81
2023/04/05 10:54:19;;;;;;;3.80;2.72;;;10.50;95.70;;;;;;5006801;28;20036;-81
2023/04/05 10:56:45;;;;;;;3.75;2.90;;;10.80;96.40;;;;;;5003001;28;20018;-81
2023/04/05 10:59:12;;;;;;;3.85;2.35;;;11.20;97.50;;;;;;5006319;28;20025;-81
2023/04/05 11:01:39;;;;;;;2.50;2.08;;;11.20;90.40;;;;;;5001260;28;20050;-82
2023/04/05 11:04:16;;;;;;;7.60;2.75;;;10.70;91.20;;;;;;5007097;28;20026;-80
2023/04/05 11:06:42;;;;;;;3.03;2.10;;;10.50;90.60;;;;;;5001851;28;20105;-82
2023/04/05 11:09:16;;;;;;;3.53;2.17;;;10.30;88.50;;;;;;5008600;28;20029;-82
2023/04/05 11:11:46;;;;;;;1.90;1.67;;;10.30;86.80;;;;;;5004824;28;20522;-80
2023/04/05 11:14:35;;;;;;;3.67;2.00;;;10.20;87.70;;;;;;5008719;28;20034;-82
2023/04/05 11:17:02;;;;;;;2.40;1.95;;;10.10;89.70;;;;;;4997825;28;20049;-80
2023/04/05 11:19:43;;;;;;;2.88;2.03;;;10.10;90.00;;;;;;4985312;28;20014;-82
2023/04/05 11:22:21;;;;;;;8.15;2.63;;;9.70;90.90;;;;;;4996650;28;20022;-81
2023/04/05 11:25:01;;;;;;;3.53;2.92;;;9.70;91.50;;;;;;5007887;28;20029;-81
2023/04/05 11:27:30;;;;;;;4.07;3.30;;;9.70;92.00;;;;;;4997049;28;20113;-81
2023/04/05 11:29:58;;;;;;;7.45;2.50;;;9.50;92.00;;;;;;4999413;28;20030;-82
2023/04/05 11:32:38;;;;;;;4.30;2.72;;;9.40;92.20;;;;;;4997242;28;20057;-81
2023/04/05 11:35:11;;;;;;;4.32;2.72;;;9.50;92.90;;;;;;5004423;28;20452;-82
2023/04/05 11:38:06;;;;;;;4.68;3.00;;;9.70;92.60;;;;;;4996757;28;20033;-81
2023/04/05 11:40:34;;;;;;;3.42;2.40;;;9.60;93.20;;;;;;4986931;28;20037;-82
2023/04/05 11:43:09;;;;;;;5.13;2.63;;;9.40;92.70;;;;;;4996446;28;20080;-82
2023/04/05 11:45:36;;;;;;;4.03;2.80;;;9.50;93.60;;;;;;5000766;28;20042;-82
2023/04/05 11:48:07;;;;;;;3.83;3.05;;;9.50;93.30;;;;;;5003545;28;20129;-81
2023/04/05 11:50:41;;;;;;;3.28;2.55;;;9.40;94.10;;;;;;5077919;28;20418;-47
2023/04/05 11:53:07;;;;;;;5.55;2.85;;;9.40;93.30;;;;;;5053517;28;20029;-49
2023/04/05 11:55:33;;;;;;;3.05;2.50;;;9.50;96.00;;;;;;5057808;28;20514;-49
2023/04/05 11:57:59;;;;;;;5.05;2.80;;;9.60;94.40;;;;;;5052050;28;20052;-50
2023/04/05 12:00:25;;;;;;;6.20;2.80;;;9.80;93.40;;;;;;5045194;28;20385;-51
2023/04/05 12:02:55;;;;;;;4.55;2.83;;;9.70;93.70;;;;;;5056821;28;20479;-50
2023/04/05 12:05:20;;;;;;;6.35;2.63;;;9.80;95.00;;;;;;5069745;23;20052;-59
2023/04/05 12:07:51;;;;;;;5.53;2.25;;;10.00;94.80;;;;;;5057487;28;20086;-59
2023/04/05 12:10:17;;;;;;;4.45;2.58;;;10.20;93.60;;;;;;5048610;28;20503;-59
2023/04/05 12:12:44;;;;;;;2.83;2.28;;;10.40;93.70;;;;;;5058561;28;20017;-60
2023/04/05 12:15:14;;;;;;;3.42;2.28;;;10.30;91.40;;;;;;5036392;28;20018;-59
2023/04/05 12:17:49;;;;;;;3.13;2.17;;;10.30;91.30;;;;;;5052287;28;20021;-61
2023/04/05 12:20:23;;;;;;;4.50;2.15;;;10.40;90.50;;;;;;5056823;28;20032;-59
2023/04/05 12:22:51;;;;;;;3.15;2.10;;;10.20;88.90;;;;;;5053468;28;20048;-60
2023/04/05 12:25:17;;;;;;;3.40;1.95;;;10.10;91.40;;;;;;5076348;28;20025;-60
2023/04/05 12:27:44;;;;;;;3.38;2.00;;;10.20;90.40;;;;;;5062354;28;20387;-60
2023/04/05 12:30:16;;;;;;;4.03;1.98;;;10.00;89.00;;;;;;5073057;28;20031;-59
2023/04/05 12:32:51;;;;;;;2.35;2.00;;;9.90;89.80;;;;;;5072452;28;20036;-59
2023/04/05 12:35:23;;;;;;;3.05;1.80;;;10.00;91.20;;;;;;5072792;28;20446;-55
2023/04/05 12:37:52;;;;;;;5.90;1.70;;;10.10;89.50;;;;;;5073477;28;20365;-54
2023/04/05 12:40:21;;;;;;;1.80;1.60;;;10.30;89.70;;;;;;5070636;28;20036;-58
2023/04/05 12:42:47;;;;;;;2.15;1.58;;;10.30;88.60;;;;;;5054820;28;20028;-59
2023/04/05 12:45:13;;;;;;;2.60;1.83;;;10.20;86.00;;;;;;5066273;28;20032;-57
2023/04/05 12:47:52;;;;;;;3.83;1.75;;;10.10;86.90;;;;;;5072486;28;20027;-58
2023/04/05 12:50:24;;;;;;;5.00;1.40;;;10.30;87.60;;;;;;5074637;28;20452;-59
2023/04/05 12:53:05;;;;;;;2.00;1.08;;;10.30;84.20;;;;;;5072116;28;20487;-58
2023/04/05 12:55:31;;;;;;;2.20;1.45;;;10.10;82.60;;;;;;5071789;28;20025;-57